Time;durP1;ratioP1;P1;durP2;ratioP2;P2;SDS_P1;SDS_P2;PMS_P1;PMS_P2;Temp;Humidity;BMP_temperature;BMP_pressure;BME280_temperature;BME280_humidity;BME280_pressure;Samples;Min_cycle;Max_cycle;Signal;HPM_P1;HPM_P2
2023/03/03 00:01:38;;;;;;;11.98;7.75;;;;;8.50;102290.00;;;;5048826;28;20202;-73
2023/03/03 00:04:05;;;;;;;11.02;8.05;;;;;8.50;102292.00;;;;5047870;28;20231;-73
2023/03/03 00:06:33;;;;;;;14.00;8.75;;;;;8.50;102286.00;;;;5034644;28;20255;-73
2023/03/03 00:09:00;;;;;;;10.30;7.80;;;;;8.40;102287.00;;;;5043809;28;20196;-73
2023/03/03 00:11:27;;;;;;;12.40;7.78;;;;;8.40;102302.00;;;;5047453;28;20195;-73
2023/03/03 00:13:57;;;;;;;12.43;7.78;;;;;8.40;102295.00;;;;5047739;28;20203;-73
2023/03/03 00:16:27;;;;;;;10.68;7.53;;;;;8.40;102291.00;;;;5047681;28;20219;-73
2023/03/03 00:18:55;;;;;;;10.50;6.65;;;;;8.40;102299.00;;;;5047528;28;20195;-73
2023/03/03 00:21:28;;;;;;;13.25;7.88;;;;;8.30;102305.00;;;;5045681;28;20207;-73
2023/03/03 00:24:02;;;;;;;10.05;6.57;;;;;8.30;102305.00;;;;5045163;28;20258;-73
2023/03/03 00:26:35;;;;;;;9.43;6.35;;;;;8.30;102294.00;;;;5048569;28;20550;-73
2023/03/03 00:29:31;;;;;;;10.70;6.97;;;;;8.20;102303.00;;;;5028569;28;20210;-73
2023/03/03 00:32:21;;;;;;;9.15;6.57;;;;;8.20;102307.00;;;;5043327;28;20199;-72
2023/03/03 00:34:48;;;;;;;9.40;6.72;;;;;8.20;102305.00;;;;5041175;28;20191;-73
2023/03/03 00:37:28;;;;;;;9.65;6.88;;;;;8.20;102303.00;;;;5036970;28;20207;-73
2023/03/03 00:40:18;;;;;;;8.43;6.18;;;;;8.20;102306.00;;;;5046345;28;20195;-73
2023/03/03 00:42:50;;;;;;;10.68;6.72;;;;;8.20;102309.00;;;;5048030;28;20198;-73
2023/03/03 00:45:45;;;;;;;10.98;6.95;;;;;8.20;102313.00;;;;5042875;28;20706;-73
2023/03/03 00:48:25;;;;;;;10.43;6.75;;;;;8.20;102318.00;;;;5040701;28;20187;-73
2023/03/03 00:50:54;;;;;;;11.15;6.90;;;;;8.30;102313.00;;;;5038275;28;20693;-73
2023/03/03 00:53:24;;;;;;;10.77;7.07;;;;;8.30;102310.00;;;;5048132;28;20195;-73
2023/03/03 00:55:53;;;;;;;10.23;6.95;;;;;8.30;102306.00;;;;5047631;28;20210;-73
2023/03/03 00:58:21;;;;;;;12.07;7.38;;;;;8.30;102313.00;;;;5047846;28;20203;-73
2023/03/03 01:00:51;;;;;;;9.82;6.40;;;;;8.30;102313.00;;;;5047048;28;20743;-73
2023/03/03 01:03:21;;;;;;;12.88;7.25;;;;;8.30;102309.00;;;;5047974;28;20203;-73
2023/03/03 01:05:49;;;;;;;13.93;7.00;;;;;8.30;102314.00;;;;5044103;28;20275;-73
2023/03/03 01:08:16;;;;;;;9.80;7.15;;;;;8.40;102311.00;;;;5040704;28;20210;-73
2023/03/03 01:10:49;;;;;;;11.27;7.35;;;;;8.30;102311.00;;;;5048063;28;20200;-73
2023/03/03 01:13:17;;;;;;;13.02;8.00;;;;;8.30;102311.00;;;;5046110;28;20291;-73
2023/03/03 01:15:44;;;;;;;10.38;6.78;;;;;8.30;102314.00;;;;5047040;28;20208;-73
2023/03/03 01:18:13;;;;;;;11.57;7.47;;;;;8.30;102316.00;;;;5047162;28;20231;-73
2023/03/03 01:20:41;;;;;;;11.00;6.57;;;;;8.40;102315.00;;;;5046923;28;20708;-73
2023/03/03 01:23:08;;;;;;;12.10;7.47;;;;;8.40;102318.00;;;;5051181;28;20206;-73
2023/03/03 01:25:36;;;;;;;13.05;7.53;;;;;8.40;102315.00;;;;5050416;28;20640;-73
2023/03/03 01:28:04;;;;;;;12.07;7.80;;;;;8.40;102316.00;;;;5051788;28;20195;-73
2023/03/03 01:30:32;;;;;;;12.13;7.38;;;;;8.40;102324.00;;;;5045257;28;20203;-73
2023/03/03 01:32:59;;;;;;;12.60;8.02;;;;;8.40;102323.00;;;;5051397;28;20204;-73
2023/03/03 01:35:28;;;;;;;11.80;7.45;;;;;8.40;102323.00;;;;5050124;28;20218;-73
2023/03/03 01:37:56;;;;;;;12.50;7.72;;;;;8.40;102321.00;;;;5050431;28;20310;-74
2023/03/03 01:40:25;;;;;;;11.68;7.63;;;;;8.40;102325.00;;;;5051310;28;20214;-73
2023/03/03 01:42:52;;;;;;;12.10;7.18;;;;;8.40;102324.00;;;;5051791;28;20199;-73
2023/03/03 01:45:24;;;;;;;11.25;6.93;;;;;8.40;102331.00;;;;5050092;28;20230;-73
2023/03/03 01:47:59;;;;;;;12.00;7.18;;;;;8.40;102321.00;;;;5042910;28;20223;-73
2023/03/03 01:50:38;;;;;;;13.25;7.82;;;;;8.40;102327.00;;;;5039140;28;20227;-73
2023/03/03 01:53:12;;;;;;;12.77;7.10;;;;;8.40;102325.00;;;;5046336;28;20206;-73
2023/03/03 01:55:41;;;;;;;13.27;7.93;;;;;8.40;102336.00;;;;5048826;28;20199;-73
2023/03/03 01:58:14;;;;;;;12.40;7.35;;;;;8.40;102323.00;;;;5049608;28;20215;-73
2023/03/03 02:00:44;;;;;;;12.40;7.53;;;;;8.40;102325.00;;;;5050832;28;20650;-73
2023/03/03 02:03:12;;;;;;;11.40;7.38;;;;;8.40;102334.00;;;;5049957;28;20246;-73
2023/03/03 02:05:43;;;;;;;9.85;6.80;;;;;8.40;102324.00;;;;5048564;28;20238;-73
2023/03/03 02:08:15;;;;;;;11.82;7.43;;;;;8.40;102331.00;;;;5048520;28;20196;-73
2023/03/03 02:10:43;;;;;;;9.55;6.50;;;;;8.40;102331.00;;;;5049464;28;20210;-73
2023/03/03 02:13:10;;;;;;;12.80;8.57;;;;;8.40;102327.00;;;;5050408;28;20207;-73
2023/03/03 02:15:38;;;;;;;11.00;7.05;;;;;8.40;102320.00;;;;5049800;28;20208;-73
2023/03/03 02:18:09;;;;;;;12.80;7.40;;;;;8.40;102327.00;;;;5049184;28;20235;-73
2023/03/03 02:20:51;;;;;;;10.60;7.13;;;;;8.40;102330.00;;;;5030987;28;20220;-73
2023/03/03 02:23:23;;;;;;;10.32;6.85;;;;;8.40;102327.00;;;;5032684;28;20204;-73
2023/03/03 02:26:05;;;;;;;11.40;6.97;;;;;8.30;102326.00;;;;5049867;28;20223;-73
2023/03/03 02:28:35;;;;;;;10.95;6.47;;;;;8.40;102325.00;;;;5049613;28;20207;-73
2023/03/03 02:31:03;;;;;;;12.57;7.53;;;;;8.40;102332.00;;;;5047910;28;20200;-73
2023/03/03 02:33:30;;;;;;;11.93;7.28;;;;;8.40;102329.00;;;;5049577;28;20235;-73
2023/03/03 02:35:57;;;;;;;12.52;7.30;;;;;8.50;102328.00;;;;5049821;28;20220;-73
2023/03/03 02:38:27;;;;;;;11.93;7.63;;;;;8.50;102328.00;;;;5045629;28;20200;-73
2023/03/03 02:41:03;;;;;;;12.27;8.10;;;;;8.50;102327.00;;;;5043112;28;20199;-73
2023/03/03 02:43:36;;;;;;;13.27;7.93;;;;;8.50;102336.00;;;;5049320;28;20669;-73
2023/03/03 02:46:03;;;;;;;12.00;8.10;;;;;8.50;102335.00;;;;5049779;28;20231;-73
2023/03/03 02:48:30;;;;;;;13.20;7.63;;;;;8.60;102337.00;;;;5049956;28;20204;-73
2023/03/03 02:50:58;;;;;;;12.05;7.40;;;;;8.60;102325.00;;;;5046923;28;20249;-73
2023/03/03 02:53:25;;;;;;;13.63;7.28;;;;;8.50;102333.00;;;;5048809;28;20569;-73
2023/03/03 02:55:52;;;;;;;10.75;7.28;;;;;8.60;102325.00;;;;5041454;28;20564;-73
2023/03/03 02:58:19;;;;;;;13.10;7.90;;;;;8.60;102322.00;;;;5041511;28;20202;-73
2023/03/03 03:00:48;;;;;;;12.93;8.20;;;;;8.60;102325.00;;;;5047971;28;20204;-73
2023/03/03 03:03:16;;;;;;;15.13;7.80;;;;;8.60;102326.00;;;;5049285;28;20563;-73
2023/03/03 03:05:43;;;;;;;13.15;7.40;;;;;8.60;102331.00;;;;5048249;28;20223;-74
2023/03/03 03:08:10;;;;;;;11.73;7.18;;;;;8.60;102326.00;;;;5049530;28;20204;-74
2023/03/03 03:10:38;;;;;;;13.52;7.20;;;;;8.60;102331.00;;;;5048603;28;20203;-73
2023/03/03 03:13:05;;;;;;;13.00;7.68;;;;;8.60;102333.00;;;;5048289;28;20195;-73
2023/03/03 03:15:32;;;;;;;12.30;7.03;;;;;8.60;102335.00;;;;5050101;28;20199;-73
2023/03/03 03:18:01;;;;;;;12.55;7.28;;;;;8.50;102329.00;;;;5049087;28;20223;-73
2023/03/03 03:20:28;;;;;;;13.10;8.10;;;;;8.60;102330.00;;;;5048227;28;20207;-73
2023/03/03 03:22:55;;;;;;;12.40;7.95;;;;;8.60;102329.00;;;;5049674;28;20207;-73
2023/03/03 03:25:23;;;;;;;12.95;8.10;;;;;8.60;102340.00;;;;5047130;28;20231;-73
2023/03/03 03:27:50;;;;;;;12.30;7.80;;;;;8.60;102337.00;;;;5046821;28;20653;-73
2023/03/03 03:30:19;;;;;;;11.95;7.28;;;;;8.60;102334.00;;;;5042998;28;20578;-73
2023/03/03 03:32:46;;;;;;;12.50;7.22;;;;;8.50;102340.00;;;;5048759;28;20212;-73
2023/03/03 03:35:16;;;;;;;10.80;6.35;;;;;8.50;102339.00;;;;5045418;28;20191;-73
2023/03/03 03:37:43;;;;;;;12.70;7.45;;;;;8.50;102334.00;;;;5036816;28;20206;-73
2023/03/03 03:40:11;;;;;;;11.60;6.68;;;;;8.40;102323.00;;;;5048350;28;20440;-73
2023/03/03 03:42:40;;;;;;;11.25;6.63;;;;;8.40;102343.00;;;;5048672;28;20191;-73
2023/03/03 03:45:08;;;;;;;10.85;6.32;;;;;8.40;102339.00;;;;5045761;28;20222;-73
2023/03/03 03:47:35;;;;;;;9.98;6.55;;;;;8.40;102337.00;;;;5044822;28;20203;-73
2023/03/03 03:50:03;;;;;;;12.75;6.57;;;;;8.40;102345.00;;;;5048018;28;20215;-73
2023/03/03 03:52:31;;;;;;;10.88;6.75;;;;;8.40;102342.00;;;;5048797;28;20200;-73
2023/03/03 03:54:58;;;;;;;13.40;7.93;;;;;8.40;102349.00;;;;5045853;28;20215;-73
2023/03/03 03:57:26;;;;;;;11.60;7.40;;;;;8.40;102344.00;;;;5046553;28;20609;-73
2023/03/03 03:59:53;;;;;;;9.38;6.13;;;;;8.40;102348.00;;;;5034252;28;20221;-73
2023/03/03 04:02:21;;;;;;;12.10;6.75;;;;;8.40;102358.00;;;;5044406;28;20210;-73
2023/03/03 04:04:48;;;;;;;11.95;6.68;;;;;8.40;102354.00;;;;5044355;28;20215;-73
2023/03/03 04:07:15;;;;;;;12.02;7.32;;;;;8.40;102345.00;;;;5046359;28;20223;-73
2023/03/03 04:09:44;;;;;;;12.60;6.93;;;;;8.40;102350.00;;;;5046214;28;20673;-73
2023/03/03 04:12:11;;;;;;;12.75;8.02;;;;;8.40;102342.00;;;;5047357;28;20203;-73
2023/03/03 04:14:39;;;;;;;9.85;5.78;;;;;8.40;102343.00;;;;5042734;28;20695;-73
2023/03/03 04:17:06;;;;;;;11.27;6.55;;;;;8.40;102350.00;;;;5046742;28;20215;-74
2023/03/03 04:19:33;;;;;;;13.43;7.03;;;;;8.40;102352.00;;;;5045720;28;20210;-74
2023/03/03 04:22:00;;;;;;;13.18;7.22;;;;;8.40;102356.00;;;;5044840;28;20196;-74
2023/03/03 04:24:28;;;;;;;13.20;7.35;;;;;8.40;102347.00;;;;5035686;28;20206;-73
2023/03/03 04:26:56;;;;;;;10.40;6.65;;;;;8.40;102349.00;;;;5046472;28;20569;-73
2023/03/03 04:29:23;;;;;;;9.90;6.28;;;;;8.40;102342.00;;;;5048657;28;20218;-73
2023/03/03 04:31:51;;;;;;;11.73;6.72;;;;;8.40;102352.00;;;;5048809;28;20615;-73
2023/03/03 04:34:18;;;;;;;12.38;6.97;;;;;8.40;102353.00;;;;5046516;28;20357;-73
2023/03/03 04:36:45;;;;;;;12.40;7.30;;;;;8.40;102350.00;;;;5047865;28;20198;-73
2023/03/03 04:39:13;;;;;;;11.63;6.95;;;;;8.40;102358.00;;;;5028414;28;20223;-73
2023/03/03 04:41:40;;;;;;;9.45;5.88;;;;;8.40;102356.00;;;;5042172;28;20206;-73
2023/03/03 04:44:09;;;;;;;9.75;5.72;;;;;8.40;102355.00;;;;5047072;28;20195;-73
2023/03/03 04:46:36;;;;;;;10.07;5.97;;;;;8.40;102359.00;;;;5046703;28;20223;-73
2023/03/03 04:49:06;;;;;;;11.23;6.00;;;;;8.40;102353.00;;;;5045475;28;20670;-74
2023/03/03 04:51:34;;;;;;;10.77;6.57;;;;;8.40;102355.00;;;;5048002;28;20253;-74
2023/03/03 04:54:01;;;;;;;10.85;6.60;;;;;8.40;102352.00;;;;5045008;28;20200;-73
2023/03/03 04:56:30;;;;;;;10.00;5.80;;;;;8.40;102358.00;;;;5044941;28;20214;-73
2023/03/03 04:58:57;;;;;;;10.32;5.70;;;;;8.40;102355.00;;;;5051448;28;20707;-73
2023/03/03 05:01:26;;;;;;;10.65;6.22;;;;;8.40;102355.00;;;;5052274;28;20203;-74
2023/03/03 05:03:53;;;;;;;11.45;5.80;;;;;8.40;102354.00;;;;5050025;28;20219;-73
2023/03/03 05:06:21;;;;;;;9.75;6.45;;;;;8.40;102359.00;;;;5048640;28;20238;-73
2023/03/03 05:08:48;;;;;;;13.00;7.72;;;;;8.40;102362.00;;;;5047329;28;20211;-73
2023/03/03 05:11:15;;;;;;;14.65;7.28;;;;;8.50;102352.00;;;;5048248;28;20283;-73
2023/03/03 05:13:43;;;;;;;12.43;7.45;;;;;8.50;102361.00;;;;5040875;28;20678;-73
2023/03/03 05:16:10;;;;;;;11.98;6.88;;;;;8.50;102360.00;;;;5050260;28;20232;-73
2023/03/03 05:18:39;;;;;;;12.50;7.13;;;;;8.50;102362.00;;;;5051187;28;20199;-73
2023/03/03 05:21:07;;;;;;;13.02;7.40;;;;;8.50;102364.00;;;;5044691;28;20200;-73
2023/03/03 05:23:34;;;;;;;13.35;6.95;;;;;8.50;102351.00;;;;5050516;28;20700;-73
2023/03/03 05:26:01;;;;;;;10.68;6.00;;;;;8.50;102361.00;;;;5051235;28;20227;-73
2023/03/03 05:28:29;;;;;;;13.38;6.45;;;;;8.50;102363.00;;;;5045411;28;20219;-74
2023/03/03 05:30:56;;;;;;;11.85;6.88;;;;;8.50;102361.00;;;;5044086;28;20210;-73
2023/03/03 05:33:23;;;;;;;13.35;7.20;;;;;8.50;102354.00;;;;5050037;28;20202;-73
2023/03/03 05:35:56;;;;;;;12.35;7.32;;;;;8.50;102356.00;;;;5047947;28;20208;-74
2023/03/03 05:38:25;;;;;;;11.82;6.85;;;;;8.50;102360.00;;;;5044661;28;20265;-73
2023/03/03 05:40:53;;;;;;;12.68;7.20;;;;;8.50;102356.00;;;;5047102;28;20204;-74
2023/03/03 05:43:21;;;;;;;13.40;6.50;;;;;8.50;102359.00;;;;5049974;28;20620;-73
2023/03/03 05:45:48;;;;;;;10.52;5.75;;;;;8.50;102362.00;;;;5050198;28;20306;-73
2023/03/03 05:48:15;;;;;;;12.35;6.32;;;;;8.60;102353.00;;;;5049453;28;20585;-74
2023/03/03 05:50:42;;;;;;;12.90;6.20;;;;;8.60;102358.00;;;;5049133;28;20203;-73
2023/03/03 05:53:11;;;;;;;11.40;5.45;;;;;8.50;102359.00;;;;5047831;28;20219;-73
2023/03/03 05:55:38;;;;;;;10.27;5.72;;;;;8.50;102348.00;;;;5050363;28;20207;-73
2023/03/03 05:58:05;;;;;;;11.57;6.07;;;;;8.60;102357.00;;;;5048951;28;20200;-73
2023/03/03 06:00:33;;;;;;;9.23;5.00;;;;;8.60;102347.00;;;;5049001;28;20195;-73
2023/03/03 06:03:00;;;;;;;10.70;5.68;;;;;8.60;102361.00;;;;5040124;28;20287;-74
2023/03/03 06:05:27;;;;;;;11.27;5.90;;;;;8.60;102358.00;;;;5030358;28;20224;-73
2023/03/03 06:07:55;;;;;;;10.30;5.88;;;;;8.60;102363.00;;;;5046160;28;20243;-73
2023/03/03 06:10:23;;;;;;;10.35;5.82;;;;;8.60;102365.00;;;;5049311;28;20196;-73
2023/03/03 06:12:51;;;;;;;11.88;5.43;;;;;8.60;102360.00;;;;5049579;28;20199;-73
2023/03/03 06:15:18;;;;;;;11.73;5.30;;;;;8.70;102370.00;;;;5048974;28;20682;-73
2023/03/03 06:17:45;;;;;;;10.45;6.00;;;;;8.70;102363.00;;;;5049623;28;20214;-74
2023/03/03 06:20:13;;;;;;;10.57;5.75;;;;;8.70;102378.00;;;;5047034;28;20196;-74
2023/03/03 06:22:40;;;;;;;8.85;5.47;;;;;8.70;102385.00;;;;5049582;28;20212;-72
2023/03/03 06:25:08;;;;;;;11.43;5.85;;;;;8.80;102387.00;;;;5050346;28;20206;-74
2023/03/03 06:27:37;;;;;;;11.73;5.78;;;;;8.80;102392.00;;;;5050590;28;20226;-72
2023/03/03 06:30:05;;;;;;;12.68;6.50;;;;;8.80;102395.00;;;;5048053;28;20196;-72
2023/03/03 06:32:32;;;;;;;11.02;5.95;;;;;8.80;102403.00;;;;5049108;28;20341;-72
2023/03/03 06:34:59;;;;;;;11.18;6.20;;;;;8.80;102393.00;;;;5050478;28;20784;-72
2023/03/03 06:37:27;;;;;;;10.75;6.05;;;;;8.90;102394.00;;;;5048329;28;20191;-72
2023/03/03 06:39:54;;;;;;;10.63;5.88;;;;;8.90;102394.00;;;;5046713;28;20203;-72
2023/03/03 06:42:23;;;;;;;10.88;5.97;;;;;8.90;102398.00;;;;5032360;28;20670;-72
2023/03/03 06:44:52;;;;;;;11.98;6.25;;;;;8.90;102403.00;;;;5038669;28;20592;-72
2023/03/03 06:47:19;;;;;;;10.52;6.35;;;;;8.90;102405.00;;;;5044113;28;20745;-72
2023/03/03 06:49:46;;;;;;;10.35;5.50;;;;;8.90;102410.00;;;;5050574;28;20199;-72
2023/03/03 06:52:17;;;;;;;10.60;5.05;;;;;8.90;102409.00;;;;5057199;28;20673;-72
2023/03/03 06:54:44;;;;;;;10.20;5.88;;;;;9.00;102414.00;;;;5046645;28;20261;-72
2023/03/03 06:57:20;;;;;;;12.07;5.78;;;;;9.00;102424.00;;;;5048064;28;20200;-73
2023/03/03 06:59:52;;;;;;;10.88;5.53;;;;;9.00;102415.00;;;;5046485;28;20203;-72
2023/03/03 07:02:21;;;;;;;10.75;5.40;;;;;9.00;102420.00;;;;5048725;28;20207;-74
2023/03/03 07:04:48;;;;;;;10.88;6.20;;;;;9.10;102415.00;;;;5049131;28;20682;-72
2023/03/03 07:07:19;;;;;;;10.75;5.78;;;;;9.10;102420.00;;;;5047645;28;20597;-72
2023/03/03 07:09:48;;;;;;;11.88;5.55;;;;;9.10;102430.00;;;;5046046;28;20208;-72
2023/03/03 07:12:18;;;;;;;10.30;5.47;;;;;9.10;102429.00;;;;5040960;28;20203;-73
2023/03/03 07:14:50;;;;;;;8.93;5.13;;;;;9.10;102443.00;;;;5047277;28;20691;-73
2023/03/03 07:17:20;;;;;;;8.73;5.38;;;;;9.10;102433.00;;;;5047523;28;20219;-74
2023/03/03 07:19:48;;;;;;;8.68;4.78;;;;;9.20;102438.00;;;;5049020;28;20196;-73
2023/03/03 07:22:18;;;;;;;8.07;4.68;;;;;9.20;102442.00;;;;5049544;28;20298;-74
2023/03/03 07:24:48;;;;;;;8.43;5.20;;;;;9.30;102440.00;;;;5048649;28;20206;-74
2023/03/03 07:27:23;;;;;;;8.80;5.00;;;;;9.30;102448.00;;;;5044230;28;20235;-73
2023/03/03 07:29:52;;;;;;;8.32;4.32;;;;;9.30;102441.00;;;;5039830;28;20203;-74
2023/03/03 07:32:37;;;;;;;7.35;3.75;;;;;9.30;102447.00;;;;5049575;28;20215;-74
2023/03/03 07:35:22;;;;;;;7.45;4.35;;;;;9.30;102447.00;;;;5048728;28;20207;-74
2023/03/03 07:37:49;;;;;;;7.97;4.45;;;;;9.40;102447.00;;;;5047580;28;20210;-73
2023/03/03 07:40:34;;;;;;;6.72;4.57;;;;;9.30;102445.00;;;;5047376;28;20203;-74
2023/03/03 07:43:16;;;;;;;7.63;4.15;;;;;9.40;102449.00;;;;5045367;28;20199;-74
2023/03/03 07:45:44;;;;;;;9.27;4.43;;;;;9.50;102447.00;;;;5040588;28;20220;-74
2023/03/03 07:48:22;;;;;;;9.20;4.10;;;;;9.50;102449.00;;;;5045152;28;20200;-74
2023/03/03 07:50:50;;;;;;;6.32;3.55;;;;;9.60;102447.00;;;;5046056;28;20693;-74
2023/03/03 07:53:26;;;;;;;8.07;4.03;;;;;9.60;102464.00;;;;5048664;28;20207;-74
2023/03/03 07:55:54;;;;;;;6.78;3.63;;;;;9.60;102465.00;;;;5046678;28;20218;-74
2023/03/03 07:58:24;;;;;;;7.60;4.15;;;;;9.60;102471.00;;;;5047021;28;20219;-74
2023/03/03 08:01:28;;;;;;;6.25;3.25;;;;;9.60;102472.00;;;;5039436;28;20215;-74
2023/03/03 08:03:57;;;;;;;6.65;3.85;;;;;9.70;102480.00;;;;5046589;28;20573;-74
2023/03/03 08:06:41;;;;;;;8.00;4.07;;;;;9.70;102482.00;;;;5046047;28;20234;-74
2023/03/03 08:09:36;;;;;;;6.40;3.88;;;;;9.70;102486.00;;;;5048107;28;20680;-74
2023/03/03 08:12:39;;;;;;;5.88;3.55;;;;;9.70;102487.00;;;;5039058;28;20580;-74
2023/03/03 08:15:28;;;;;;;6.50;3.13;;;;;9.80;102493.00;;;;5042114;28;20199;-72
2023/03/03 08:17:56;;;;;;;9.25;3.53;;;;;9.90;102483.00;;;;5042624;28;20211;-72
2023/03/03 08:20:46;;;;;;;7.10;3.97;;;;;9.90;102492.00;;;;5040112;28;20210;-73
2023/03/03 08:23:15;;;;;;;5.63;3.50;;;;;10.00;102504.00;;;;5052103;28;20206;-73
2023/03/03 08:25:43;;;;;;;7.40;3.92;;;;;10.10;102501.00;;;;5054435;28;20200;-73
2023/03/03 08:28:11;;;;;;;5.85;3.08;;;;;10.10;102504.00;;;;5045934;28;20577;-73
2023/03/03 08:30:38;;;;;;;6.60;3.58;;;;;10.20;102496.00;;;;5044833;28;20600;-73
2023/03/03 08:33:06;;;;;;;5.03;3.20;;;;;10.20;102504.00;;;;5046397;28;20199;-73
2023/03/03 08:35:33;;;;;;;6.00;3.70;;;;;10.20;102507.00;;;;5040880;28;20204;-72
2023/03/03 08:38:02;;;;;;;6.15;3.40;;;;;10.30;102506.00;;;;5043671;28;20202;-73
2023/03/03 08:40:29;;;;;;;6.10;3.65;;;;;10.30;102501.00;;;;5043312;28;20215;-72
2023/03/03 08:42:58;;;;;;;5.93;3.17;;;;;10.40;102508.00;;;;5043554;28;20195;-73
2023/03/03 08:45:25;;;;;;;5.95;3.75;;;;;10.40;102505.00;;;;5033066;28;20610;-73
2023/03/03 08:47:53;;;;;;;6.45;3.35;;;;;10.50;102510.00;;;;5026919;28;20574;-73
2023/03/03 08:50:20;;;;;;;4.97;2.65;;;;;10.60;102513.00;;;;5035614;28;20199;-73
2023/03/03 08:52:47;;;;;;;5.50;2.97;;;;;10.60;102510.00;;;;5040407;28;20204;-73
2023/03/03 08:55:16;;;;;;;5.43;2.90;;;;;10.70;102509.00;;;;5035060;28;20870;-73
2023/03/03 08:57:43;;;;;;;5.97;3.28;;;;;10.70;102512.00;;;;5040934;28;20208;-73
2023/03/03 09:00:13;;;;;;;8.07;3.63;;;;;10.80;102512.00;;;;5046801;28;20210;-73
2023/03/03 09:02:41;;;;;;;4.97;2.97;;;;;10.80;102510.00;;;;5046967;28;20215;-73
2023/03/03 09:05:09;;;;;;;5.60;3.00;;;;;10.90;102510.00;;;;5041116;28;20210;-74
2023/03/03 09:07:37;;;;;;;5.20;3.10;;;;;10.90;102510.00;;;;5040029;28;20235;-72
2023/03/03 09:10:06;;;;;;;4.85;2.88;;;;;11.00;102513.00;;;;5036572;28;20212;-73
2023/03/03 09:12:38;;;;;;;5.32;3.30;;;;;11.00;102514.00;;;;5038297;28;20208;-73
2023/03/03 09:15:19;;;;;;;7.07;3.45;;;;;11.00;102507.00;;;;5044237;28;20199;-73
2023/03/03 09:17:47;;;;;;;5.15;2.65;;;;;11.10;102513.00;;;;5044731;28;20227;-73
2023/03/03 09:20:33;;;;;;;4.28;2.20;;;;;11.10;102512.00;;;;5044926;28;20215;-73
2023/03/03 09:23:16;;;;;;;5.05;2.92;;;;;11.20;102513.00;;;;5031669;28;20210;-73
2023/03/03 09:25:43;;;;;;;5.70;2.75;;;;;11.30;102512.00;;;;5043711;28;20211;-73
2023/03/03 09:28:23;;;;;;;5.38;2.88;;;;;11.30;102512.00;;;;5034043;28;20697;-73
2023/03/03 09:30:52;;;;;;;4.78;2.85;;;;;11.40;102515.00;;;;5043134;28;20670;-74
2023/03/03 09:33:26;;;;;;;6.82;3.17;;;;;11.40;102520.00;;;;5042995;28;20196;-73
2023/03/03 09:36:01;;;;;;;5.68;3.00;;;;;11.50;102514.00;;;;5045682;28;20210;-73
2023/03/03 09:38:30;;;;;;;5.68;2.65;;;;;11.50;102518.00;;;;5042679;28;20207;-74
2023/03/03 09:41:24;;;;;;;5.05;2.13;;;;;11.40;102517.00;;;;5044824;28;20192;-73
2023/03/03 09:44:10;;;;;;;3.88;2.50;;;;;11.50;102517.00;;;;5038060;28;20210;-73
2023/03/03 09:46:45;;;;;;;3.78;2.22;;;;;11.60;102518.00;;;;5031982;28;20315;-73
2023/03/03 09:49:24;;;;;;;6.57;2.53;;;;;11.60;102518.00;;;;5046963;28;20195;-74
2023/03/03 09:52:14;;;;;;;6.80;2.55;;;;;11.70;102514.00;;;;5047633;28;20203;-73
2023/03/03 09:54:52;;;;;;;4.75;2.67;;;;;11.70;102520.00;;;;5046317;28;20203;-73
2023/03/03 09:57:28;;;;;;;4.13;2.05;;;;;11.80;102520.00;;;;5049386;28;20199;-73
2023/03/03 10:00:14;;;;;;;4.30;2.53;;;;;11.80;102522.00;;;;5048544;28;20204;-74
2023/03/03 10:02:52;;;;;;;4.53;2.10;;;;;11.90;102525.00;;;;5052004;28;20211;-73
2023/03/03 10:05:33;;;;;;;4.10;2.47;;;;;11.80;102523.00;;;;5044244;28;20580;-72
2023/03/03 10:08:21;;;;;;;3.97;2.42;;;;;11.90;102526.00;;;;5038058;28;20226;-73
2023/03/03 10:11:01;;;;;;;3.63;2.17;;;;;11.90;102531.00;;;;5046517;28;20685;-73
2023/03/03 10:13:49;;;;;;;5.10;2.85;;;;;12.00;102530.00;;;;5044027;28;20200;-73
2023/03/03 10:16:40;;;;;;;4.15;1.65;;;;;12.00;102524.00;;;;5047569;28;20192;-74
2023/03/03 10:19:26;;;;;;;3.50;2.10;;;;;12.10;102532.00;;;;5039553;28;20196;-73
2023/03/03 10:22:02;;;;;;;4.18;2.50;;;;;12.20;102525.00;;;;5038936;28;20203;-73
2023/03/03 10:24:31;;;;;;;3.10;1.90;;;;;12.20;102526.00;;;;5041339;28;20191;-73
2023/03/03 10:27:06;;;;;;;3.63;2.25;;;;;12.30;102526.00;;;;5049984;28;20596;-73
2023/03/03 10:29:41;;;;;;;3.78;2.28;;;;;12.40;102527.00;;;;5049341;28;20199;-73
2023/03/03 10:32:36;;;;;;;3.90;2.15;;;;;12.30;102514.00;;;;5041329;28;20290;-73
2023/03/03 10:35:18;;;;;;;4.63;2.40;;;;;12.40;102525.00;;;;5037356;28;20712;-73
2023/03/03 10:37:55;;;;;;;5.03;2.38;;;;;12.40;102523.00;;;;5037040;28;20198;-73
2023/03/03 10:40:31;;;;;;;2.55;1.92;;;;;12.40;102527.00;;;;5047524;28;20464;-73
2023/03/03 10:43:23;;;;;;;3.63;2.08;;;;;12.40;102522.00;;;;5046397;28;20187;-73
2023/03/03 10:46:19;;;;;;;4.95;2.10;;;;;12.50;102530.00;;;;5047847;28;20519;-73
2023/03/03 10:49:17;;;;;;;4.22;2.20;;;;;12.60;102535.00;;;;5046893;28;20195;-73
2023/03/03 10:52:07;;;;;;;5.88;2.10;;;;;12.70;102538.00;;;;5042167;28;20208;-73
2023/03/03 10:54:51;;;;;;;3.63;2.00;;;;;12.70;102531.00;;;;5046974;28;20658;-74
2023/03/03 10:57:30;;;;;;;4.82;2.60;;;;;12.70;102525.00;;;;5036381;28;20192;-74
2023/03/03 11:00:16;;;;;;;3.08;1.90;;;;;12.70;102522.00;;;;5044055;28;20195;-73
2023/03/03 11:03:07;;;;;;;5.63;2.25;;;;;12.70;102519.00;;;;5044966;28;20195;-74
2023/03/03 11:05:42;;;;;;;4.30;2.10;;;;;12.80;102532.00;;;;5049169;28;20199;-73
2023/03/03 11:08:15;;;;;;;3.95;2.40;;;;;12.90;102530.00;;;;5047943;28;20246;-73
2023/03/03 11:10:52;;;;;;;3.88;2.25;;;;;12.90;102525.00;;;;5045995;28;20227;-73
2023/03/03 11:13:26;;;;;;;3.47;1.92;;;;;13.00;102520.00;;;;5045401;28;20203;-73
2023/03/03 11:16:16;;;;;;;4.03;1.92;;;;;13.00;102517.00;;;;5046100;28;20205;-72
2023/03/03 11:18:56;;;;;;;3.10;1.50;;;;;13.00;102516.00;;;;5043163;28;20231;-74
2023/03/03 11:21:31;;;;;;;3.63;1.70;;;;;13.00;102513.00;;;;5048527;28;20217;-73
2023/03/03 11:24:08;;;;;;;2.97;1.60;;;;;13.10;102511.00;;;;5047487;28;20253;-73
2023/03/03 11:26:53;;;;;;;3.45;1.80;;;;;13.10;102514.00;;;;5042910;28;20195;-74
2023/03/03 11:29:37;;;;;;;2.53;1.55;;;;;13.20;102510.00;;;;5036150;28;20192;-74
2023/03/03 11:32:18;;;;;;;1.98;1.40;;;;;13.30;102503.00;;;;5046016;28;20188;-75
2023/03/03 11:34:57;;;;;;;3.63;2.10;;;;;13.40;102508.00;;;;5041213;28;20207;-74
2023/03/03 11:37:35;;;;;;;2.78;2.08;;;;;13.50;102500.00;;;;5035299;28;20207;-74
2023/03/03 11:40:13;;;;;;;4.45;1.83;;;;;13.60;102504.00;;;;5042497;28;20658;-73
2023/03/03 11:42:57;;;;;;;3.33;1.88;;;;;13.70;102507.00;;;;5044311;28;20196;-74
2023/03/03 11:45:31;;;;;;;3.10;1.70;;;;;13.90;102502.00;;;;5046721;28;20203;-74
2023/03/03 11:48:04;;;;;;;2.38;1.20;;;;;14.10;102514.00;;;;5044875;28;20235;-74
2023/03/03 11:50:36;;;;;;;2.08;1.25;;;;;14.20;102500.00;;;;5045736;28;20210;-74
2023/03/03 11:53:22;;;;;;;3.08;1.42;;;;;14.30;102496.00;;;;5048570;28;20678;-75
2023/03/03 11:55:56;;;;;;;3.00;1.67;;;;;14.50;102494.00;;;;5046694;28;20206;-74
2023/03/03 11:58:29;;;;;;;2.65;1.60;;;;;14.70;102485.00;;;;5045932;28;20207;-75
2023/03/03 12:01:03;;;;;;;3.90;2.03;;;;;14.80;102490.00;;;;5045260;28;20242;-74
2023/03/03 12:03:34;;;;;;;2.10;1.20;;;;;15.00;102494.00;;;;5045125;28;20200;-75
2023/03/03 12:06:21;;;;;;;3.63;1.20;;;;;15.10;102487.00;;;;5045751;28;20254;-75
2023/03/03 12:09:13;;;;;;;2.30;1.42;;;;;15.20;102494.00;;;;5045257;28;20596;-76
2023/03/03 12:11:49;;;;;;;1.83;1.17;;;;;15.40;102491.00;;;;5047058;28;20550;-75
2023/03/03 12:14:28;;;;;;;2.35;1.00;;;;;15.50;102482.00;;;;5042674;28;20195;-74
2023/03/03 12:17:00;;;;;;;1.17;0.90;;;;;15.70;102482.00;;;;5035863;28;20223;-75
2023/03/03 12:19:40;;;;;;;2.67;1.27;;;;;15.70;102480.00;;;;5039682;28;20208;-74
2023/03/03 12:22:20;;;;;;;2.00;1.13;;;;;15.80;102472.00;;;;5046741;28;20199;-75
2023/03/03 12:25:03;;;;;;;3.25;1.50;;;;;15.80;102472.00;;;;5043939;28;20576;-74
2023/03/03 12:27:41;;;;;;;1.58;1.08;;;;;15.90;102478.00;;;;5038424;28;20316;-74
2023/03/03 12:30:19;;;;;;;1.15;0.77;;;;;15.90;102476.00;;;;5043588;28;20191;-75
2023/03/03 12:32:59;;;;;;;1.63;0.73;;;;;15.80;102473.00;;;;5048495;28;20226;-74
2023/03/03 12:35:34;;;;;;;3.05;0.75;;;;;15.80;102468.00;;;;5033978;28;20196;-75